sensor_id;sensor_type;location;lat;lon;timestamp;P1;durP1;ratioP1;P2;durP2;ratioP2
14241;SDS011;7205;50.864;12.766;2022-07-04T00:01:37;1.90;;;1.27;;
14241;SDS011;7205;50.864;12.766;2022-07-04T00:04:04;1.70;;;1.17;;
14241;SDS011;7205;50.864;12.766;2022-07-04T00:06:31;2.60;;;0.93;;
14241;SDS011;7205;50.864;12.766;2022-07-04T00:08:59;1.57;;;1.07;;
14241;SDS011;7205;50.864;12.766;2022-07-04T00:11:29;1.53;;;1.20;;
14241;SDS011;7205;50.864;12.766;2022-07-04T00:13:56;2.40;;;1.33;;
14241;SDS011;7205;50.864;12.766;2022-07-04T00:16:23;1.67;;;1.10;;
14241;SDS011;7205;50.864;12.766;2022-07-04T00:18:50;1.33;;;0.97;;
14241;SDS011;7205;50.864;12.766;2022-07-04T00:21:17;1.27;;;1.20;;
14241;SDS011;7205;50.864;12.766;2022-07-04T00:23:44;5.20;;;4.33;;
14241;SDS011;7205;50.864;12.766;2022-07-04T00:26:12;1.47;;;1.37;;
14241;SDS011;7205;50.864;12.766;2022-07-04T00:28:39;0.90;;;0.90;;
14241;SDS011;7205;50.864;12.766;2022-07-04T00:31:06;1.70;;;1.60;;
14241;SDS011;7205;50.864;12.766;2022-07-04T00:33:33;1.93;;;1.23;;
14241;SDS011;7205;50.864;12.766;2022-07-04T00:36:00;1.93;;;1.03;;
14241;SDS011;7205;50.864;12.766;2022-07-04T00:38:27;1.40;;;1.30;;
14241;SDS011;7205;50.864;12.766;2022-07-04T00:40:54;1.67;;;1.20;;
14241;SDS011;7205;50.864;12.766;2022-07-04T00:43:22;3.17;;;1.13;;
14241;SDS011;7205;50.864;12.766;2022-07-04T00:45:50;1.87;;;1.30;;
14241;SDS011;7205;50.864;12.766;2022-07-04T00:48:17;2.60;;;1.27;;
14241;SDS011;7205;50.864;12.766;2022-07-04T00:50:45;1.23;;;1.00;;
14241;SDS011;7205;50.864;12.766;2022-07-04T00:53:13;3.80;;;1.10;;
14241;SDS011;7205;50.864;12.766;2022-07-04T00:55:40;1.73;;;1.20;;
14241;SDS011;7205;50.864;12.766;2022-07-04T00:58:07;2.87;;;1.50;;
14241;SDS011;7205;50.864;12.766;2022-07-04T01:00:35;1.43;;;1.10;;
14241;SDS011;7205;50.864;12.766;2022-07-04T01:03:02;4.47;;;1.50;;
14241;SDS011;7205;50.864;12.766;2022-07-04T01:05:30;1.57;;;1.47;;
14241;SDS011;7205;50.864;12.766;2022-07-04T01:07:57;3.40;;;1.37;;
14241;SDS011;7205;50.864;12.766;2022-07-04T01:10:25;4.87;;;1.33;;
14241;SDS011;7205;50.864;12.766;2022-07-04T01:12:53;4.57;;;4.07;;
14241;SDS011;7205;50.864;12.766;2022-07-04T01:15:20;2.30;;;2.10;;
14241;SDS011;7205;50.864;12.766;2022-07-04T01:17:49;3.33;;;1.00;;
14241;SDS011;7205;50.864;12.766;2022-07-04T01:20:17;3.60;;;2.73;;
14241;SDS011;7205;50.864;12.766;2022-07-04T01:22:44;6.40;;;4.93;;
14241;SDS011;7205;50.864;12.766;2022-07-04T01:25:11;6.20;;;3.93;;
14241;SDS011;7205;50.864;12.766;2022-07-04T01:27:39;3.70;;;1.40;;
14241;SDS011;7205;50.864;12.766;2022-07-04T01:30:07;4.20;;;1.63;;
14241;SDS011;7205;50.864;12.766;2022-07-04T01:32:34;8.53;;;7.70;;
14241;SDS011;7205;50.864;12.766;2022-07-04T01:35:01;2.87;;;2.07;;
14241;SDS011;7205;50.864;12.766;2022-07-04T01:37:30;5.10;;;4.70;;
14241;SDS011;7205;50.864;12.766;2022-07-04T01:39:58;3.50;;;2.47;;
14241;SDS011;7205;50.864;12.766;2022-07-04T01:42:25;1.83;;;1.60;;
14241;SDS011;7205;50.864;12.766;2022-07-04T01:44:51;3.40;;;1.10;;
14241;SDS011;7205;50.864;12.766;2022-07-04T01:47:18;2.50;;;1.43;;
14241;SDS011;7205;50.864;12.766;2022-07-04T01:49:45;18.03;;;9.27;;
14241;SDS011;7205;50.864;12.766;2022-07-04T01:52:12;5.27;;;4.47;;
14241;SDS011;7205;50.864;12.766;2022-07-04T01:54:42;6.20;;;2.60;;
14241;SDS011;7205;50.864;12.766;2022-07-04T01:57:09;3.90;;;3.53;;
14241;SDS011;7205;50.864;12.766;2022-07-04T01:59:38;3.20;;;2.10;;
14241;SDS011;7205;50.864;12.766;2022-07-04T02:02:22;4.30;;;1.20;;
14241;SDS011;7205;50.864;12.766;2022-07-04T02:04:49;6.83;;;6.17;;
14241;SDS011;7205;50.864;12.766;2022-07-04T02:07:17;5.27;;;2.80;;
14241;SDS011;7205;50.864;12.766;2022-07-04T02:09:45;2.03;;;1.70;;
14241;SDS011;7205;50.864;12.766;2022-07-04T02:12:12;2.60;;;1.60;;
14241;SDS011;7205;50.864;12.766;2022-07-04T02:14:57;4.53;;;1.90;;
14241;SDS011;7205;50.864;12.766;2022-07-04T02:17:23;3.60;;;2.80;;
14241;SDS011;7205;50.864;12.766;2022-07-04T02:19:50;4.13;;;1.90;;
14241;SDS011;7205;50.864;12.766;2022-07-04T02:22:17;4.00;;;2.23;;
14241;SDS011;7205;50.864;12.766;2022-07-04T02:24:46;2.47;;;2.27;;
14241;SDS011;7205;50.864;12.766;2022-07-04T02:27:13;6.43;;;2.00;;
14241;SDS011;7205;50.864;12.766;2022-07-04T02:29:40;2.00;;;1.80;;
14241;SDS011;7205;50.864;12.766;2022-07-04T02:32:07;6.30;;;3.73;;
14241;SDS011;7205;50.864;12.766;2022-07-04T02:34:34;4.13;;;3.77;;
14241;SDS011;7205;50.864;12.766;2022-07-04T02:37:02;2.33;;;2.20;;
14241;SDS011;7205;50.864;12.766;2022-07-04T02:39:29;3.33;;;2.60;;
14241;SDS011;7205;50.864;12.766;2022-07-04T02:41:57;6.17;;;3.33;;
14241;SDS011;7205;50.864;12.766;2022-07-04T02:44:24;3.50;;;2.90;;
14241;SDS011;7205;50.864;12.766;2022-07-04T02:46:51;3.17;;;2.90;;
14241;SDS011;7205;50.864;12.766;2022-07-04T02:49:18;4.23;;;3.93;;
14241;SDS011;7205;50.864;12.766;2022-07-04T02:51:45;4.87;;;4.47;;
14241;SDS011;7205;50.864;12.766;2022-07-04T02:54:13;3.83;;;3.20;;
14241;SDS011;7205;50.864;12.766;2022-07-04T02:56:39;8.73;;;7.30;;
14241;SDS011;7205;50.864;12.766;2022-07-04T02:59:08;4.53;;;3.20;;
14241;SDS011;7205;50.864;12.766;2022-07-04T03:01:35;6.80;;;5.73;;
14241;SDS011;7205;50.864;12.766;2022-07-04T03:04:02;5.47;;;4.23;;
14241;SDS011;7205;50.864;12.766;2022-07-04T03:06:29;4.90;;;3.90;;
14241;SDS011;7205;50.864;12.766;2022-07-04T03:08:56;4.20;;;3.80;;
14241;SDS011;7205;50.864;12.766;2022-07-04T03:11:23;8.63;;;5.97;;
14241;SDS011;7205;50.864;12.766;2022-07-04T03:13:50;3.53;;;3.23;;
14241;SDS011;7205;50.864;12.766;2022-07-04T03:16:18;6.83;;;6.23;;
14241;SDS011;7205;50.864;12.766;2022-07-04T03:18:45;4.90;;;4.50;;
14241;SDS011;7205;50.864;12.766;2022-07-04T03:21:12;3.13;;;2.97;;
14241;SDS011;7205;50.864;12.766;2022-07-04T03:23:39;3.00;;;2.80;;
14241;SDS011;7205;50.864;12.766;2022-07-04T03:26:06;4.63;;;4.23;;
14241;SDS011;7205;50.864;12.766;2022-07-04T03:28:34;9.57;;;7.60;;
14241;SDS011;7205;50.864;12.766;2022-07-04T03:31:01;3.90;;;3.10;;
14241;SDS011;7205;50.864;12.766;2022-07-04T03:33:29;3.30;;;3.10;;
14241;SDS011;7205;50.864;12.766;2022-07-04T03:35:56;5.50;;;4.93;;
14241;SDS011;7205;50.864;12.766;2022-07-04T03:38:23;2.83;;;2.63;;
14241;SDS011;7205;50.864;12.766;2022-07-04T03:40:50;5.43;;;3.53;;
14241;SDS011;7205;50.864;12.766;2022-07-04T03:43:17;3.57;;;3.27;;
14241;SDS011;7205;50.864;12.766;2022-07-04T03:45:44;3.97;;;3.60;;
14241;SDS011;7205;50.864;12.766;2022-07-04T03:48:10;4.33;;;4.03;;
14241;SDS011;7205;50.864;12.766;2022-07-04T03:50:39;4.93;;;4.53;;
14241;SDS011;7205;50.864;12.766;2022-07-04T03:53:06;5.60;;;4.67;;
14241;SDS011;7205;50.864;12.766;2022-07-04T03:55:33;3.80;;;2.97;;
14241;SDS011;7205;50.864;12.766;2022-07-04T03:57:59;3.60;;;2.60;;
14241;SDS011;7205;50.864;12.766;2022-07-04T04:00:29;3.23;;;3.00;;
14241;SDS011;7205;50.864;12.766;2022-07-04T04:02:56;2.73;;;2.53;;
14241;SDS011;7205;50.864;12.766;2022-07-04T04:05:23;2.97;;;2.73;;
14241;SDS011;7205;50.864;12.766;2022-07-04T04:07:57;4.73;;;3.10;;
14241;SDS011;7205;50.864;12.766;2022-07-04T04:10:25;4.77;;;2.73;;
14241;SDS011;7205;50.864;12.766;2022-07-04T04:12:56;3.40;;;3.20;;
14241;SDS011;7205;50.864;12.766;2022-07-04T04:15:23;4.63;;;2.83;;
14241;SDS011;7205;50.864;12.766;2022-07-04T04:17:50;3.00;;;2.83;;
14241;SDS011;7205;50.864;12.766;2022-07-04T04:20:17;3.30;;;2.97;;
14241;SDS011;7205;50.864;12.766;2022-07-04T04:22:47;5.00;;;3.20;;
14241;SDS011;7205;50.864;12.766;2022-07-04T04:25:16;7.10;;;3.43;;
14241;SDS011;7205;50.864;12.766;2022-07-04T04:27:43;3.70;;;3.40;;
14241;SDS011;7205;50.864;12.766;2022-07-04T04:30:10;4.43;;;3.20;;
14241;SDS011;7205;50.864;12.766;2022-07-04T04:32:37;3.73;;;3.30;;
14241;SDS011;7205;50.864;12.766;2022-07-04T04:35:05;5.57;;;3.30;;
14241;SDS011;7205;50.864;12.766;2022-07-04T04:37:33;3.80;;;3.50;;
14241;SDS011;7205;50.864;12.766;2022-07-04T04:39:59;4.27;;;3.80;;
14241;SDS011;7205;50.864;12.766;2022-07-04T04:42:28;3.70;;;3.40;;
14241;SDS011;7205;50.864;12.766;2022-07-04T04:44:55;3.37;;;3.13;;
14241;SDS011;7205;50.864;12.766;2022-07-04T04:47:22;4.20;;;3.80;;
14241;SDS011;7205;50.864;12.766;2022-07-04T04:49:49;3.83;;;3.50;;
14241;SDS011;7205;50.864;12.766;2022-07-04T04:52:15;3.70;;;3.40;;
14241;SDS011;7205;50.864;12.766;2022-07-04T04:54:42;4.07;;;3.63;;
14241;SDS011;7205;50.864;12.766;2022-07-04T04:57:09;5.40;;;3.77;;
14241;SDS011;7205;50.864;12.766;2022-07-04T04:59:37;4.33;;;3.93;;
14241;SDS011;7205;50.864;12.766;2022-07-04T05:02:04;3.70;;;3.40;;
14241;SDS011;7205;50.864;12.766;2022-07-04T05:04:31;4.23;;;3.77;;
14241;SDS011;7205;50.864;12.766;2022-07-04T05:06:58;4.70;;;4.40;;
14241;SDS011;7205;50.864;12.766;2022-07-04T05:09:25;4.77;;;3.53;;
14241;SDS011;7205;50.864;12.766;2022-07-04T05:11:52;4.20;;;3.80;;
14241;SDS011;7205;50.864;12.766;2022-07-04T05:14:19;4.30;;;3.70;;
14241;SDS011;7205;50.864;12.766;2022-07-04T05:16:48;4.43;;;3.83;;
14241;SDS011;7205;50.864;12.766;2022-07-04T05:19:15;4.47;;;4.10;;
14241;SDS011;7205;50.864;12.766;2022-07-04T05:21:41;6.03;;;4.17;;
14241;SDS011;7205;50.864;12.766;2022-07-04T05:24:08;4.80;;;4.00;;
14241;SDS011;7205;50.864;12.766;2022-07-04T05:26:36;4.10;;;3.43;;
14241;SDS011;7205;50.864;12.766;2022-07-04T05:29:03;3.67;;;3.37;;
14241;SDS011;7205;50.864;12.766;2022-07-04T05:31:30;3.93;;;3.60;;
14241;SDS011;7205;50.864;12.766;2022-07-04T05:33:58;4.10;;;3.70;;
14241;SDS011;7205;50.864;12.766;2022-07-04T05:36:25;4.37;;;3.53;;
14241;SDS011;7205;50.864;12.766;2022-07-04T05:38:52;4.27;;;3.70;;
14241;SDS011;7205;50.864;12.766;2022-07-04T05:41:19;5.33;;;3.30;;
14241;SDS011;7205;50.864;12.766;2022-07-04T05:43:46;4.23;;;3.10;;
14241;SDS011;7205;50.864;12.766;2022-07-04T05:46:12;3.50;;;3.20;;
14241;SDS011;7205;50.864;12.766;2022-07-04T05:48:39;3.83;;;3.53;;
14241;SDS011;7205;50.864;12.766;2022-07-04T05:51:08;3.50;;;3.20;;
14241;SDS011;7205;50.864;12.766;2022-07-04T05:53:35;3.97;;;3.67;;
14241;SDS011;7205;50.864;12.766;2022-07-04T05:56:02;3.60;;;3.30;;
14241;SDS011;7205;50.864;12.766;2022-07-04T05:58:29;4.00;;;3.60;;
14241;SDS011;7205;50.864;12.766;2022-07-04T06:00:56;7.17;;;6.47;;
14241;SDS011;7205;50.864;12.766;2022-07-04T06:03:23;5.80;;;3.17;;
14241;SDS011;7205;50.864;12.766;2022-07-04T06:05:53;6.43;;;3.73;;
14241;SDS011;7205;50.864;12.766;2022-07-04T06:08:22;7.70;;;7.07;;
14241;SDS011;7205;50.864;12.766;2022-07-04T06:10:49;4.90;;;3.40;;
14241;SDS011;7205;50.864;12.766;2022-07-04T06:13:16;4.40;;;3.30;;
14241;SDS011;7205;50.864;12.766;2022-07-04T06:15:43;3.33;;;3.03;;
14241;SDS011;7205;50.864;12.766;2022-07-04T06:18:10;4.17;;;2.80;;
14241;SDS011;7205;50.864;12.766;2022-07-04T06:20:38;3.30;;;2.50;;
14241;SDS011;7205;50.864;12.766;2022-07-04T06:23:06;2.90;;;2.70;;
14241;SDS011;7205;50.864;12.766;2022-07-04T06:25:34;2.60;;;2.40;;
14241;SDS011;7205;50.864;12.766;2022-07-04T06:28:01;3.13;;;2.87;;
14241;SDS011;7205;50.864;12.766;2022-07-04T06:30:28;2.63;;;2.43;;
14241;SDS011;7205;50.864;12.766;2022-07-04T06:32:56;4.97;;;2.93;;
14241;SDS011;7205;50.864;12.766;2022-07-04T06:35:25;4.13;;;2.80;;
14241;SDS011;7205;50.864;12.766;2022-07-04T06:38:11;3.40;;;2.53;;
14241;SDS011;7205;50.864;12.766;2022-07-04T06:40:42;2.60;;;2.40;;
14241;SDS011;7205;50.864;12.766;2022-07-04T06:43:10;2.40;;;2.20;;
14241;SDS011;7205;50.864;12.766;2022-07-04T06:45:38;2.63;;;2.43;;
14241;SDS011;7205;50.864;12.766;2022-07-04T06:48:05;2.73;;;2.20;;
14241;SDS011;7205;50.864;12.766;2022-07-04T06:50:36;2.50;;;2.30;;
14241;SDS011;7205;50.864;12.766;2022-07-04T06:53:03;2.70;;;2.37;;
14241;SDS011;7205;50.864;12.766;2022-07-04T06:55:32;2.50;;;2.20;;
14241;SDS011;7205;50.864;12.766;2022-07-04T06:58:01;2.40;;;2.20;;
14241;SDS011;7205;50.864;12.766;2022-07-04T07:00:28;3.57;;;2.50;;
14241;SDS011;7205;50.864;12.766;2022-07-04T07:02:56;5.40;;;2.30;;
14241;SDS011;7205;50.864;12.766;2022-07-04T07:05:24;2.37;;;1.83;;
14241;SDS011;7205;50.864;12.766;2022-07-04T07:07:52;2.40;;;2.20;;
14241;SDS011;7205;50.864;12.766;2022-07-04T07:10:19;2.03;;;1.93;;
14241;SDS011;7205;50.864;12.766;2022-07-04T07:12:46;3.13;;;2.10;;
14241;SDS011;7205;50.864;12.766;2022-07-04T07:15:15;7.17;;;2.20;;
14241;SDS011;7205;50.864;12.766;2022-07-04T07:17:44;5.60;;;1.93;;
14241;SDS011;7205;50.864;12.766;2022-07-04T07:20:11;4.30;;;1.97;;
14241;SDS011;7205;50.864;12.766;2022-07-04T07:22:39;2.20;;;2.10;;
14241;SDS011;7205;50.864;12.766;2022-07-04T07:25:07;1.90;;;1.60;;
14241;SDS011;7205;50.864;12.766;2022-07-04T07:27:35;6.67;;;1.90;;
14241;SDS011;7205;50.864;12.766;2022-07-04T07:30:03;2.13;;;2.03;;
14241;SDS011;7205;50.864;12.766;2022-07-04T07:32:32;2.20;;;2.00;;
14241;SDS011;7205;50.864;12.766;2022-07-04T07:34:59;4.13;;;2.07;;
14241;SDS011;7205;50.864;12.766;2022-07-04T07:37:27;4.80;;;2.40;;
14241;SDS011;7205;50.864;12.766;2022-07-04T07:39:54;3.40;;;2.00;;
14241;SDS011;7205;50.864;12.766;2022-07-04T07:42:22;2.17;;;1.87;;
14241;SDS011;7205;50.864;12.766;2022-07-04T07:44:49;7.77;;;3.37;;
14241;SDS011;7205;50.864;12.766;2022-07-04T07:47:19;1.87;;;1.47;;
14241;SDS011;7205;50.864;12.766;2022-07-04T07:49:47;1.70;;;1.60;;
14241;SDS011;7205;50.864;12.766;2022-07-04T07:52:14;1.70;;;1.37;;
14241;SDS011;7205;50.864;12.766;2022-07-04T07:54:42;1.40;;;1.30;;
14241;SDS011;7205;50.864;12.766;2022-07-04T07:57:09;1.33;;;1.30;;
14241;SDS011;7205;50.864;12.766;2022-07-04T07:59:36;1.53;;;1.43;;
14241;SDS011;7205;50.864;12.766;2022-07-04T08:02:06;1.57;;;1.33;;
14241;SDS011;7205;50.864;12.766;2022-07-04T08:04:36;3.00;;;1.80;;
14241;SDS011;7205;50.864;12.766;2022-07-04T08:07:04;3.53;;;1.90;;
14241;SDS011;7205;50.864;12.766;2022-07-04T08:09:34;1.97;;;1.40;;
14241;SDS011;7205;50.864;12.766;2022-07-04T08:12:04;3.50;;;1.77;;
14241;SDS011;7205;50.864;12.766;2022-07-04T08:14:33;2.73;;;1.30;;
14241;SDS011;7205;50.864;12.766;2022-07-04T08:17:00;1.83;;;1.73;;
14241;SDS011;7205;50.864;12.766;2022-07-04T08:19:27;1.33;;;1.13;;
14241;SDS011;7205;50.864;12.766;2022-07-04T08:21:55;2.43;;;1.63;;
14241;SDS011;7205;50.864;12.766;2022-07-04T08:24:26;3.90;;;1.80;;
14241;SDS011;7205;50.864;12.766;2022-07-04T08:26:53;3.87;;;1.50;;
14241;SDS011;7205;50.864;12.766;2022-07-04T08:29:22;2.37;;;1.70;;
14241;SDS011;7205;50.864;12.766;2022-07-04T08:31:53;2.23;;;1.40;;
14241;SDS011;7205;50.864;12.766;2022-07-04T08:34:20;5.53;;;1.77;;
14241;SDS011;7205;50.864;12.766;2022-07-04T08:36:47;2.23;;;1.60;;
14241;SDS011;7205;50.864;12.766;2022-07-04T08:39:14;2.80;;;1.20;;
14241;SDS011;7205;50.864;12.766;2022-07-04T08:41:43;2.60;;;1.90;;
14241;SDS011;7205;50.864;12.766;2022-07-04T08:44:10;3.63;;;1.37;;
14241;SDS011;7205;50.864;12.766;2022-07-04T08:46:37;2.83;;;1.33;;
14241;SDS011;7205;50.864;12.766;2022-07-04T08:49:09;2.87;;;1.10;;
14241;SDS011;7205;50.864;12.766;2022-07-04T08:51:46;1.87;;;1.20;;
14241;SDS011;7205;50.864;12.766;2022-07-04T08:54:17;1.70;;;1.50;;
14241;SDS011;7205;50.864;12.766;2022-07-04T08:57:05;3.67;;;1.30;;
14241;SDS011;7205;50.864;12.766;2022-07-04T08:59:51;2.17;;;1.10;;
14241;SDS011;7205;50.864;12.766;2022-07-04T09:02:20;3.03;;;1.17;;
14241;SDS011;7205;50.864;12.766;2022-07-04T09:04:49;2.17;;;1.97;;
14241;SDS011;7205;50.864;12.766;2022-07-04T09:07:16;2.03;;;1.47;;
14241;SDS011;7205;50.864;12.766;2022-07-04T09:09:44;1.10;;;1.10;;
14241;SDS011;7205;50.864;12.766;2022-07-04T09:12:13;2.23;;;1.43;;
14241;SDS011;7205;50.864;12.766;2022-07-04T09:14:40;1.40;;;1.30;;
14241;SDS011;7205;50.864;12.766;2022-07-04T09:17:07;2.03;;;1.40;;
14241;SDS011;7205;50.864;12.766;2022-07-04T09:19:37;2.20;;;1.33;;
14241;SDS011;7205;50.864;12.766;2022-07-04T09:22:07;4.67;;;1.20;;
14241;SDS011;7205;50.864;12.766;2022-07-04T09:24:46;2.30;;;1.17;;
14241;SDS011;7205;50.864;12.766;2022-07-04T09:27:32;2.13;;;1.10;;
14241;SDS011;7205;50.864;12.766;2022-07-04T09:30:00;1.83;;;1.40;;
14241;SDS011;7205;50.864;12.766;2022-07-04T09:32:35;8.23;;;1.40;;
14241;SDS011;7205;50.864;12.766;2022-07-04T09:35:03;1.20;;;1.10;;
14241;SDS011;7205;50.864;12.766;2022-07-04T09:37:34;3.40;;;1.33;;
14241;SDS011;7205;50.864;12.766;2022-07-04T09:40:04;2.00;;;1.23;;
14241;SDS011;7205;50.864;12.766;2022-07-04T09:42:36;1.50;;;1.40;;
14241;SDS011;7205;50.864;12.766;2022-07-04T09:45:06;2.00;;;1.50;;
14241;SDS011;7205;50.864;12.766;2022-07-04T09:47:35;2.30;;;1.20;;
14241;SDS011;7205;50.864;12.766;2022-07-04T09:50:02;2.37;;;1.50;;
14241;SDS011;7205;50.864;12.766;2022-07-04T09:52:31;2.20;;;1.13;;
14241;SDS011;7205;50.864;12.766;2022-07-04T09:54:58;2.87;;;1.27;;
14241;SDS011;7205;50.864;12.766;2022-07-04T09:57:28;1.50;;;1.40;;
14241;SDS011;7205;50.864;12.766;2022-07-04T09:59:58;1.23;;;1.17;;
14241;SDS011;7205;50.864;12.766;2022-07-04T10:02:42;1.83;;;1.53;;
14241;SDS011;7205;50.864;12.766;2022-07-04T10:05:09;1.90;;;1.40;;
14241;SDS011;7205;50.864;12.766;2022-07-04T10:07:37;1.30;;;1.20;;
14241;SDS011;7205;50.864;12.766;2022-07-04T10:10:21;2.43;;;1.30;;
14241;SDS011;7205;50.864;12.766;2022-07-04T10:12:50;2.80;;;1.40;;
14241;SDS011;7205;50.864;12.766;2022-07-04T10:15:19;2.27;;;1.40;;
14241;SDS011;7205;50.864;12.766;2022-07-04T10:17:49;3.13;;;1.33;;
14241;SDS011;7205;50.864;12.766;2022-07-04T10:20:17;3.00;;;1.63;;
14241;SDS011;7205;50.864;12.766;2022-07-04T10:22:44;6.70;;;1.10;;
14241;SDS011;7205;50.864;12.766;2022-07-04T10:25:11;6.87;;;5.33;;
14241;SDS011;7205;50.864;12.766;2022-07-04T10:27:39;1.60;;;1.33;;
14241;SDS011;7205;50.864;12.766;2022-07-04T10:30:07;5.57;;;1.20;;
14241;SDS011;7205;50.864;12.766;2022-07-04T10:32:39;1.90;;;1.03;;
14241;SDS011;7205;50.864;12.766;2022-07-04T10:35:08;2.03;;;1.87;;
14241;SDS011;7205;50.864;12.766;2022-07-04T10:37:57;1.73;;;1.37;;
14241;SDS011;7205;50.864;12.766;2022-07-04T10:40:38;1.63;;;1.00;;
14241;SDS011;7205;50.864;12.766;2022-07-04T10:49:06;2.38;;;1.02;;
14241;SDS011;7205;50.864;12.766;2022-07-04T10:51:43;1.43;;;1.30;;
14241;SDS011;7205;50.864;12.766;2022-07-04T10:54:13;6.72;;;1.88;;
14241;SDS011;7205;50.864;12.766;2022-07-04T10:56:44;2.17;;;1.20;;
14241;SDS011;7205;50.864;12.766;2022-07-04T10:59:15;4.43;;;1.23;;
14241;SDS011;7205;50.864;12.766;2022-07-04T11:01:50;2.23;;;1.20;;
14241;SDS011;7205;50.864;12.766;2022-07-04T11:07:14;1.30;;;1.20;;
14241;SDS011;7205;50.864;12.766;2022-07-04T11:09:41;4.17;;;1.20;;
14241;SDS011;7205;50.864;12.766;2022-07-04T11:12:09;2.47;;;1.00;;
14241;SDS011;7205;50.864;12.766;2022-07-04T11:14:40;2.00;;;1.48;;
14241;SDS011;7205;50.864;12.766;2022-07-04T11:17:13;1.75;;;1.20;;
14241;SDS011;7205;50.864;12.766;2022-07-04T11:19:41;4.38;;;1.20;;
14241;SDS011;7205;50.864;12.766;2022-07-04T11:22:10;1.90;;;1.13;;
14241;SDS011;7205;50.864;12.766;2022-07-04T11:24:37;1.25;;;1.15;;
14241;SDS011;7205;50.864;12.766;2022-07-04T11:27:06;1.40;;;1.33;;
14241;SDS011;7205;50.864;12.766;2022-07-04T11:29:34;4.40;;;1.17;;
14241;SDS011;7205;50.864;12.766;2022-07-04T11:32:03;1.30;;;1.20;;
14241;SDS011;7205;50.864;12.766;2022-07-04T11:34:32;1.77;;;1.08;;
14241;SDS011;7205;50.864;12.766;2022-07-04T11:37:01;4.63;;;1.40;;
14241;SDS011;7205;50.864;12.766;2022-07-04T11:39:30;1.85;;;1.33;;
14241;SDS011;7205;50.864;12.766;2022-07-04T11:41:57;1.98;;;1.23;;
14241;SDS011;7205;50.864;12.766;2022-07-04T11:44:42;1.55;;;1.40;;
14241;SDS011;7205;50.864;12.766;2022-07-04T11:47:33;1.27;;;1.17;;
14241;SDS011;7205;50.864;12.766;2022-07-04T11:50:08;1.42;;;1.13;;
14241;SDS011;7205;50.864;12.766;2022-07-04T11:52:40;3.58;;;1.40;;
14241;SDS011;7205;50.864;12.766;2022-07-04T11:55:12;1.10;;;1.05;;
14241;SDS011;7205;50.864;12.766;2022-07-04T11:57:47;1.55;;;1.02;;
14241;SDS011;7205;50.864;12.766;2022-07-04T12:00:16;1.17;;;0.95;;
14241;SDS011;7205;50.864;12.766;2022-07-04T12:02:45;7.32;;;1.13;;
14241;SDS011;7205;50.864;12.766;2022-07-04T12:05:13;1.65;;;0.80;;
14241;SDS011;7205;50.864;12.766;2022-07-04T12:07:42;2.92;;;1.10;;
14241;SDS011;7205;50.864;12.766;2022-07-04T12:10:12;1.88;;;0.90;;
14241;SDS011;7205;50.864;12.766;2022-07-04T12:12:50;1.48;;;1.33;;
14241;SDS011;7205;50.864;12.766;2022-07-04T12:15:18;2.72;;;1.27;;
14241;SDS011;7205;50.864;12.766;2022-07-04T12:17:48;1.77;;;1.50;;
14241;SDS011;7205;50.864;12.766;2022-07-04T12:20:16;1.50;;;0.90;;
14241;SDS011;7205;50.864;12.766;2022-07-04T12:22:48;2.08;;;0.90;;
14241;SDS011;7205;50.864;12.766;2022-07-04T12:25:22;1.88;;;0.80;;
14241;SDS011;7205;50.864;12.766;2022-07-04T12:27:51;1.95;;;0.90;;
14241;SDS011;7205;50.864;12.766;2022-07-04T12:30:22;5.05;;;1.10;;
14241;SDS011;7205;50.864;12.766;2022-07-04T12:32:50;1.58;;;0.70;;
14241;SDS011;7205;50.864;12.766;2022-07-04T12:38:34;2.15;;;1.10;;
14241;SDS011;7205;50.864;12.766;2022-07-04T12:41:02;2.97;;;0.82;;
14241;SDS011;7205;50.864;12.766;2022-07-04T12:43:44;1.45;;;1.20;;
14241;SDS011;7205;50.864;12.766;2022-07-04T12:46:12;2.20;;;1.25;;
14241;SDS011;7205;50.864;12.766;2022-07-04T12:48:41;1.92;;;1.10;;
14241;SDS011;7205;50.864;12.766;2022-07-04T12:51:09;1.52;;;0.90;;
14241;SDS011;7205;50.864;12.766;2022-07-04T12:53:39;1.35;;;1.00;;
14241;SDS011;7205;50.864;12.766;2022-07-04T12:56:07;3.45;;;1.20;;
14241;SDS011;7205;50.864;12.766;2022-07-04T12:58:34;1.85;;;1.10;;
14241;SDS011;7205;50.864;12.766;2022-07-04T13:01:02;4.72;;;1.40;;
14241;SDS011;7205;50.864;12.766;2022-07-04T13:03:29;2.95;;;1.27;;
14241;SDS011;7205;50.864;12.766;2022-07-04T13:05:58;1.38;;;1.27;;
14241;SDS011;7205;50.864;12.766;2022-07-04T13:08:25;5.65;;;1.08;;
14241;SDS011;7205;50.864;12.766;2022-07-04T13:10:53;1.02;;;0.77;;
14241;SDS011;7205;50.864;12.766;2022-07-04T13:13:34;4.53;;;1.20;;
14241;SDS011;7205;50.864;12.766;2022-07-04T13:16:01;1.85;;;0.80;;
14241;SDS011;7205;50.864;12.766;2022-07-04T13:18:28;4.90;;;1.35;;
14241;SDS011;7205;50.864;12.766;2022-07-04T13:20:56;2.45;;;1.40;;
14241;SDS011;7205;50.864;12.766;2022-07-04T13:23:22;1.27;;;1.10;;
14241;SDS011;7205;50.864;12.766;2022-07-04T13:25:50;0.63;;;0.63;;
14241;SDS011;7205;50.864;12.766;2022-07-04T13:28:18;2.67;;;0.82;;
14241;SDS011;7205;50.864;12.766;2022-07-04T13:30:45;3.58;;;0.85;;
14241;SDS011;7205;50.864;12.766;2022-07-04T13:33:12;3.80;;;1.10;;
14241;SDS011;7205;50.864;12.766;2022-07-04T13:35:39;5.28;;;0.93;;
14241;SDS011;7205;50.864;12.766;2022-07-04T13:38:06;1.75;;;0.80;;
14241;SDS011;7205;50.864;12.766;2022-07-04T13:40:32;1.77;;;0.90;;
14241;SDS011;7205;50.864;12.766;2022-07-04T13:42:59;1.27;;;0.77;;
14241;SDS011;7205;50.864;12.766;2022-07-04T13:45:30;3.17;;;0.90;;
14241;SDS011;7205;50.864;12.766;2022-07-04T13:47:57;1.13;;;0.70;;
14241;SDS011;7205;50.864;12.766;2022-07-04T13:50:23;1.52;;;0.80;;
14241;SDS011;7205;50.864;12.766;2022-07-04T13:52:50;3.88;;;1.00;;
14241;SDS011;7205;50.864;12.766;2022-07-04T13:55:17;0.70;;;0.70;;
14241;SDS011;7205;50.864;12.766;2022-07-04T13:57:44;2.03;;;1.10;;
14241;SDS011;7205;50.864;12.766;2022-07-04T14:00:11;1.02;;;0.75;;
14241;SDS011;7205;50.864;12.766;2022-07-04T14:02:40;4.45;;;0.90;;
14241;SDS011;7205;50.864;12.766;2022-07-04T14:05:07;1.55;;;0.90;;
14241;SDS011;7205;50.864;12.766;2022-07-04T14:07:34;0.98;;;0.80;;
14241;SDS011;7205;50.864;12.766;2022-07-04T14:10:02;5.00;;;0.80;;
14241;SDS011;7205;50.864;12.766;2022-07-04T14:12:29;3.55;;;0.90;;
14241;SDS011;7205;50.864;12.766;2022-07-04T14:14:56;1.25;;;0.90;;
14241;SDS011;7205;50.864;12.766;2022-07-04T14:17:23;1.20;;;0.73;;
14241;SDS011;7205;50.864;12.766;2022-07-04T14:19:51;4.10;;;0.77;;
14241;SDS011;7205;50.864;12.766;2022-07-04T14:22:18;1.67;;;0.82;;
14241;SDS011;7205;50.864;12.766;2022-07-04T14:24:45;1.88;;;0.95;;
14241;SDS011;7205;50.864;12.766;2022-07-04T14:27:12;1.25;;;0.98;;
14241;SDS011;7205;50.864;12.766;2022-07-04T14:29:39;1.80;;;1.00;;
14241;SDS011;7205;50.864;12.766;2022-07-04T14:32:06;5.72;;;0.90;;
14241;SDS011;7205;50.864;12.766;2022-07-04T14:34:33;2.55;;;0.82;;
14241;SDS011;7205;50.864;12.766;2022-07-04T14:37:02;1.35;;;0.68;;
14241;SDS011;7205;50.864;12.766;2022-07-04T14:39:29;2.50;;;0.65;;
14241;SDS011;7205;50.864;12.766;2022-07-04T14:41:56;1.42;;;0.80;;
14241;SDS011;7205;50.864;12.766;2022-07-04T14:44:23;1.27;;;0.70;;
14241;SDS011;7205;50.864;12.766;2022-07-04T14:46:50;3.80;;;0.90;;
14241;SDS011;7205;50.864;12.766;2022-07-04T14:49:17;3.17;;;0.80;;
14241;SDS011;7205;50.864;12.766;2022-07-04T14:51:44;2.70;;;0.95;;
14241;SDS011;7205;50.864;12.766;2022-07-04T14:54:12;1.95;;;0.90;;
14241;SDS011;7205;50.864;12.766;2022-07-04T14:56:39;1.00;;;0.65;;
14241;SDS011;7205;50.864;12.766;2022-07-04T14:59:06;2.08;;;0.90;;
14241;SDS011;7205;50.864;12.766;2022-07-04T15:01:33;2.58;;;1.15;;
14241;SDS011;7205;50.864;12.766;2022-07-04T15:04:00;0.82;;;0.75;;
14241;SDS011;7205;50.864;12.766;2022-07-04T15:06:27;1.35;;;0.98;;
14241;SDS011;7205;50.864;12.766;2022-07-04T15:08:54;0.80;;;0.80;;